General Juan N Alvarez International Airport
MMAA : now visible

Airfield :











YOU CAN JOIN US ON...

 
LOGIN :

Register | Disclaimer

   EN    FR    IT 

 









Legend :    VFR   Marginal VFR   IFR   Intensive IFR   Very Intensive IFR
Visi :
Ceiling :
>= 8 km
>= 3000ft
5 to 8 km
1000 to 3000 ft
1500m to 5 km
500 to 1000 ft
800 to 1500m
200 to 500 ft
< 800m
< 200 ft
Symbols :   Thunderstorms  Fog  Heavy snow  Heavy precipitations  Wind > 20 kt







- Airport Elevation : 16 ft
- IATA code : ACA


MMAA - General Juan N Alvarez International

CURRENT METAR :
  • 211249Z 32006KT 5SM FEW090 23/20 A2995 RMK 8/030 HZY CI

EXPIRED METARs :
  • 211150Z 30003KT 5SM SCT300 22/21 A2995 RMK SLP134 57005 911 8/002 HZY
  • 211058Z RTD 00000KT 5SM SKC 22/22 A2994 RMK HZY

TAF TAF MMAA
Valid from the 21 at 12:00 until the 22 at 18:00 UTC


211124Z 2112/2218 03005KT 5SM HZ SKC TX29/2118Z TN21/2112Z
FM211600 23010KT 6SM HZ SCT300
FM220300 03005KT 5SM HZ SCT300
FM221600 23010KT 6SM HZ SCT300
MMFR FIR / North America



MET'MAP, your aeronautical weather chart ! - Copyright ORBIFLY December 2007 - Disclaimer

ORBIFLY MET'MAP TEAM :

Programming & Development : Alexandra Zaïnal
Concept & Development : Baudouin d'Aumeries
Co-Development & Prog : Marc-Olivier Méhu
Technical & hardware support : Manuel Goepfert

Contact : metmap@orbifly.com




SOURCES & CREDITS :

   NOAA       Earth
Advisory